Time;durP1;ratioP1;P1;durP2;ratioP2;P2;SDS_P1;SDS_P2;PMS_P1;PMS_P2;Temp;Humidity;BMP_temperature;BMP_pressure;BME280_temperature;BME280_humidity;BME280_pressure;Samples;Min_cycle;Max_cycle;Signal;HPM_P1;HPM_P2
2022/08/19 00:00:45;;;;;;;20.37;13.10;;;22.10;1.00;;;;;;5029421;28;20429;-80
2022/08/19 00:03:15;;;;;;;16.73;12.50;;;22.20;1.00;;;;;;5021502;28;20483;-80
2022/08/19 00:05:56;;;;;;;20.37;13.13;;;22.20;1.00;;;;;;5032853;28;20800;-80
2022/08/19 00:08:22;;;;;;;21.10;14.40;;;22.20;1.00;;;;;;5022868;28;20418;-80
2022/08/19 00:11:03;;;;;;;18.43;13.10;;;22.20;1.00;;;;;;5033394;28;20433;-80
2022/08/19 00:13:48;;;;;;;17.70;12.57;;;22.20;1.00;;;;;;5027138;28;20183;-80
2022/08/19 00:16:16;;;;;;;18.70;13.10;;;22.30;1.00;;;;;;5026998;28;20403;-80
2022/08/19 00:18:45;;;;;;;19.93;14.20;;;22.30;1.00;;;;;;5025307;28;20426;-80
2022/08/19 00:21:15;;;;;;;21.50;13.23;;;22.30;1.00;;;;;;5019299;28;20421;-80
2022/08/19 00:23:45;;;;;;;19.20;13.70;;;22.30;1.00;;;;;;5020433;28;20429;-80
2022/08/19 00:26:45;;;;;;;21.83;13.87;;;22.20;1.00;;;;;;5019329;28;20487;-79
2022/08/19 00:29:12;;;;;;;19.33;13.60;;;22.20;1.00;;;;;;5020588;28;20410;-80
2022/08/19 00:31:38;;;;;;;19.30;13.00;;;22.30;1.00;;;;;;5032250;28;20411;-80
2022/08/19 00:34:15;;;;;;;25.07;13.83;;;22.30;1.00;;;;;;5016466;28;20415;-80
2022/08/19 00:36:47;;;;;;;19.80;13.90;;;22.30;1.00;;;;;;5023555;28;20411;-80
2022/08/19 00:39:14;;;;;;;18.87;13.07;;;22.30;1.00;;;;;;5028689;28;20434;-73
2022/08/19 00:41:40;;;;;;;21.73;14.63;;;22.30;1.00;;;;;;5013455;28;20422;-73
2022/08/19 00:44:19;;;;;;;19.20;13.23;;;22.30;1.00;;;;;;5030647;28;20496;-73
2022/08/19 00:46:47;;;;;;;22.70;14.10;;;22.30;1.00;;;;;;5031888;28;20429;-74
2022/08/19 00:49:27;;;;;;;17.87;13.23;;;22.30;1.00;;;;;;5033570;28;20452;-74
2022/08/19 00:51:59;;;;;;;22.77;14.07;;;22.30;1.00;;;;;;5027754;28;20420;-74
2022/08/19 00:54:28;;;;;;;22.93;14.33;;;22.30;1.00;;;;;;5024245;28;20430;-80
2022/08/19 00:57:14;;;;;;;19.87;12.97;;;22.30;1.00;;;;;;5018217;28;20440;-80
2022/08/19 00:59:50;;;;;;;20.57;14.13;;;22.30;1.00;;;;;;5026859;28;20912;-80
2022/08/19 01:02:27;;;;;;;16.90;12.70;;;22.30;1.00;;;;;;5021439;28;20437;-79
2022/08/19 01:05:18;;;;;;;17.13;12.67;;;22.30;1.00;;;;;;5026548;28;20892;-80
2022/08/19 01:07:45;;;;;;;17.53;12.93;;;22.30;1.00;;;;;;5025670;28;20435;-79
2022/08/19 01:10:20;;;;;;;18.30;13.20;;;22.30;1.00;;;;;;5026715;28;20449;-80
2022/08/19 01:12:59;;;;;;;19.77;13.20;;;22.30;1.00;;;;;;5025560;28;20438;-80
2022/08/19 01:15:46;;;;;;;18.07;11.63;;;22.40;1.00;;;;;;5032878;28;20412;-79
2022/08/19 01:18:17;;;;;;;23.07;12.03;;;22.40;1.00;;;;;;5029346;28;20422;-79
2022/08/19 01:20:45;;;;;;;20.83;13.00;;;22.40;1.00;;;;;;5022414;28;20424;-80
2022/08/19 01:23:44;;;;;;;15.90;12.20;;;22.40;1.00;;;;;;5025500;28;20428;-79
2022/08/19 01:26:19;;;;;;;16.50;11.90;;;22.40;1.00;;;;;;5025033;28;20534;-79
2022/08/19 01:28:55;;;;;;;16.33;11.70;;;22.40;1.00;;;;;;5023882;28;21133;-80
2022/08/19 01:31:23;;;;;;;21.57;11.27;;;22.40;1.00;;;;;;5036538;28;20519;-80
2022/08/19 01:33:51;;;;;;;16.60;11.10;;;22.40;1.00;;;;;;5029449;28;20787;-80
2022/08/19 01:36:46;;;;;;;19.60;11.80;;;22.40;1.00;;;;;;5030051;28;20505;-80
2022/08/19 01:39:21;;;;;;;31.37;12.10;;;22.40;1.00;;;;;;5017119;28;20415;-80
2022/08/19 01:41:48;;;;;;;16.03;10.23;;;22.50;1.00;;;;;;5029808;28;20419;-80
2022/08/19 01:44:16;;;;;;;13.80;11.00;;;22.40;1.00;;;;;;5017057;28;20426;-80
2022/08/19 01:46:47;;;;;;;21.00;11.80;;;22.40;1.00;;;;;;5023226;28;20543;-81
2022/08/19 01:49:17;;;;;;;17.07;11.53;;;22.40;1.00;;;;;;5036410;28;20390;-80
2022/08/19 01:51:45;;;;;;;17.77;11.60;;;22.40;1.00;;;;;;5030832;28;20415;-80
2022/08/19 01:54:17;;;;;;;18.20;11.60;;;22.40;1.00;;;;;;5015876;28;20401;-80
2022/08/19 01:56:45;;;;;;;15.43;10.43;;;22.40;1.00;;;;;;5014962;28;20423;-80
2022/08/19 01:59:20;;;;;;;14.47;10.83;;;22.40;1.00;;;;;;5028784;28;20918;-80
2022/08/19 02:01:51;;;;;;;15.87;11.40;;;22.40;1.00;;;;;;5025771;28;20423;-80
2022/08/19 02:04:21;;;;;;;21.10;11.90;;;22.30;1.00;;;;;;5035064;28;20954;-80
2022/08/19 02:06:51;;;;;;;21.37;11.40;;;22.40;1.00;;;;;;5027908;28;20524;-80
2022/08/19 02:09:16;;;;;;;16.63;10.77;;;22.30;1.00;;;;;;5028685;28;20483;-80
2022/08/19 02:11:57;;;;;;;18.80;12.03;;;22.30;1.00;;;;;;5035192;28;20994;-80
2022/08/19 02:14:27;;;;;;;13.17;10.30;;;22.30;1.00;;;;;;5021389;28;20181;-80
2022/08/19 02:16:57;;;;;;;13.97;10.47;;;22.30;1.00;;;;;;5026430;28;20493;-80
2022/08/19 02:19:33;;;;;;;16.53;11.17;;;22.30;1.00;;;;;;5032796;28;20411;-80
2022/08/19 02:22:09;;;;;;;17.47;10.37;;;22.20;1.00;;;;;;5034346;28;20463;-80
2022/08/19 02:24:39;;;;;;;18.20;11.13;;;22.30;1.00;;;;;;5018241;28;20462;-74
2022/08/19 02:27:05;;;;;;;16.87;10.30;;;22.30;1.00;;;;;;5034005;28;20461;-74
2022/08/19 02:29:31;;;;;;;14.63;10.40;;;22.30;1.00;;;;;;5020281;28;20441;-74
2022/08/19 02:31:57;;;;;;;13.83;10.13;;;22.30;1.00;;;;;;5015875;28;20755;-74
2022/08/19 02:34:24;;;;;;;16.30;11.13;;;22.30;1.00;;;;;;5019853;28;20428;-74
2022/08/19 02:36:51;;;;;;;13.53;10.00;;;22.30;1.00;;;;;;5029022;28;20426;-74
2022/08/19 02:40:02;;;;;;;13.60;9.87;;;22.30;1.00;;;;;;5020262;28;20444;-80
2022/08/19 02:42:50;;;;;;;13.87;10.50;;;22.30;1.00;;;;;;5020608;28;20431;-80
2022/08/19 02:45:34;;;;;;;15.07;9.80;;;22.40;1.00;;;;;;5023887;28;20421;-79
2022/08/19 02:48:00;;;;;;;14.50;9.50;;;22.30;1.00;;;;;;5020555;28;20435;-80
2022/08/19 02:50:26;;;;;;;14.37;9.73;;;22.30;1.00;;;;;;5028144;28;20906;-80
2022/08/19 02:53:09;;;;;;;13.03;9.23;;;22.30;1.00;;;;;;5028530;28;20418;-80
2022/08/19 02:55:56;;;;;;;18.97;10.00;;;22.30;1.00;;;;;;5030741;28;20426;-80
2022/08/19 02:58:33;;;;;;;13.90;9.40;;;22.30;1.00;;;;;;5029892;28;20423;-80
2022/08/19 03:01:03;;;;;;;16.33;10.70;;;22.30;1.00;;;;;;5034710;28;20648;-80
2022/08/19 03:03:33;;;;;;;14.20;9.00;;;22.20;1.00;;;;;;5017060;28;20422;-80
2022/08/19 03:06:15;;;;;;;12.90;9.73;;;22.20;1.00;;;;;;5031259;28;20459;-80
2022/08/19 03:08:47;;;;;;;15.20;10.03;;;22.20;1.00;;;;;;5020606;28;20932;-76
2022/08/19 03:11:45;;;;;;;14.93;9.50;;;22.10;1.00;;;;;;5034448;28;20437;-80
2022/08/19 03:14:15;;;;;;;16.37;10.73;;;22.10;1.00;;;;;;5034402;28;20869;-80
2022/08/19 03:16:52;;;;;;;17.53;10.67;;;22.00;1.00;;;;;;5020401;28;20566;-81
2022/08/19 03:19:33;;;;;;;13.50;10.33;;;21.90;1.00;;;;;;5017579;28;20545;-80
2022/08/19 03:22:15;;;;;;;17.80;10.93;;;21.90;1.00;;;;;;5030040;28;20422;-80
2022/08/19 03:24:40;;;;;;;12.37;9.50;;;21.90;1.00;;;;;;5021053;28;20941;-74
2022/08/19 03:27:06;;;;;;;13.00;9.80;;;21.80;1.00;;;;;;5021187;28;20458;-74
2022/08/19 03:29:32;;;;;;;15.80;10.53;;;21.80;1.00;;;;;;5019565;28;20529;-74
2022/08/19 03:32:02;;;;;;;18.43;10.80;;;21.70;1.00;;;;;;5034715;28;20223;-74
2022/08/19 03:34:30;;;;;;;14.30;10.03;;;21.70;1.00;;;;;;5028691;28;20905;-74
2022/08/19 03:36:58;;;;;;;16.80;9.87;;;21.70;1.00;;;;;;5026795;28;20432;-74
2022/08/19 03:39:44;;;;;;;13.93;9.50;;;21.70;1.00;;;;;;5027960;28;20468;-80
2022/08/19 03:45:32;;;;;;;19.77;9.90;;;21.80;1.00;;;;;;5022046;28;20395;-80
2022/08/19 03:48:09;;;;;;;18.80;10.43;;;21.80;1.00;;;;;;5033167;28;20417;-80
2022/08/19 03:51:14;;;;;;;15.43;10.20;;;21.80;1.00;;;;;;5033907;28;20175;-81
2022/08/19 03:53:40;;;;;;;13.70;10.10;;;21.70;1.00;;;;;;5022212;28;20398;-80
2022/08/19 03:56:15;;;;;;;19.57;10.27;;;21.70;1.00;;;;;;5026834;28;20453;-80
2022/08/19 03:59:17;;;;;;;13.27;9.83;;;21.70;1.00;;;;;;5022227;28;20414;-81
2022/08/19 04:01:54;;;;;;;16.83;10.40;;;21.70;1.00;;;;;;5033721;28;20885;-79
2022/08/19 04:04:28;;;;;;;12.70;9.53;;;21.60;1.00;;;;;;5021375;28;20464;-80
2022/08/19 04:06:57;;;;;;;20.33;10.70;;;21.60;1.00;;;;;;5030486;28;20854;-80
2022/08/19 04:09:23;;;;;;;14.50;10.87;;;21.60;1.00;;;;;;5033674;28;20422;-73
2022/08/19 04:11:54;;;;;;;18.00;10.57;;;21.60;1.00;;;;;;5032651;28;20510;-73
2022/08/19 04:14:24;;;;;;;15.90;10.70;;;21.60;1.00;;;;;;5031381;28;20211;-73
2022/08/19 04:16:52;;;;;;;17.93;9.73;;;21.60;1.00;;;;;;5031253;28;21167;-73
2022/08/19 04:19:19;;;;;;;13.57;9.80;;;21.60;1.00;;;;;;5027921;28;20479;-73
2022/08/19 04:21:46;;;;;;;13.57;9.70;;;21.50;1.00;;;;;;5021786;28;20532;-72
2022/08/19 04:24:12;;;;;;;15.63;9.90;;;21.50;1.00;;;;;;5019982;28;20949;-73
2022/08/19 04:26:38;;;;;;;14.07;9.93;;;21.50;1.00;;;;;;5034051;28;20532;-73
2022/08/19 04:29:08;;;;;;;13.80;9.27;;;21.40;1.00;;;;;;5019435;28;20438;-73
2022/08/19 04:31:41;;;;;;;13.53;9.80;;;21.50;1.00;;;;;;5013687;28;20395;-73
2022/08/19 04:34:11;;;;;;;21.77;9.90;;;21.40;1.00;;;;;;5020543;28;20465;-73
2022/08/19 04:36:39;;;;;;;14.67;10.10;;;21.40;1.00;;;;;;5018472;28;20446;-73
2022/08/19 04:39:12;;;;;;;15.67;10.40;;;21.30;1.00;;;;;;5021389;28;20425;-73
2022/08/19 04:44:23;;;;;;;14.87;9.93;;;21.30;1.00;;;;;;5028283;28;20931;-73
2022/08/19 04:46:51;;;;;;;22.80;10.43;;;21.20;1.00;;;;;;5025098;28;20988;-74
2022/08/19 04:49:21;;;;;;;16.23;9.70;;;21.20;1.00;;;;;;5025426;28;20419;-73
2022/08/19 04:51:49;;;;;;;13.97;9.30;;;21.20;1.00;;;;;;5029344;28;20441;-73
2022/08/19 04:54:16;;;;;;;13.57;9.17;;;21.20;1.00;;;;;;5024279;28;20460;-73
2022/08/19 04:56:42;;;;;;;12.97;9.63;;;21.30;1.00;;;;;;5023848;28;20409;-73
2022/08/19 04:59:08;;;;;;;15.43;9.93;;;21.30;1.00;;;;;;5018264;28;20415;-73
2022/08/19 05:01:49;;;;;;;19.30;9.80;;;21.40;1.00;;;;;;5036544;28;20202;-73
2022/08/19 05:04:18;;;;;;;23.50;9.53;;;21.50;1.00;;;;;;5032544;28;20440;-73
2022/08/19 05:06:47;;;;;;;17.13;9.37;;;21.50;1.00;;;;;;5040618;28;20448;-73
2022/08/19 05:09:16;;;;;;;13.00;9.63;;;21.50;1.00;;;;;;5045726;28;20410;-73
2022/08/19 05:12:20;;;;;;;12.23;8.80;;;21.60;1.00;;;;;;5037420;28;20888;-81
2022/08/19 05:15:05;;;;;;;17.17;9.77;;;21.60;1.00;;;;;;5026812;28;20426;-82
2022/08/19 05:22:31;;;;;;;13.40;8.07;;;21.70;1.00;;;;;;5037007;28;20433;-81
2022/08/19 05:23:46;;;;;;;17.13;8.80;;;21.90;1.00;;;;;;5034007;28;20820;-81
2022/08/19 05:26:21;;;;;;;20.37;8.63;;;22.00;1.00;;;;;;5025578;28;20458;-81
2022/08/19 05:28:55;;;;;;;13.33;8.47;;;22.10;1.00;;;;;;5017144;28;20167;-82
2022/08/19 05:31:39;;;;;;;15.50;9.00;;;22.10;1.00;;;;;;5018629;28;20476;-82
2022/08/19 05:34:10;;;;;;;13.07;7.70;;;22.30;1.00;;;;;;5022920;28;20461;-80
2022/08/19 05:36:42;;;;;;;9.20;7.67;;;22.40;1.00;;;;;;5021942;28;20462;-81
2022/08/19 05:39:40;;;;;;;11.80;8.53;;;22.50;1.00;;;;;;5034555;28;20820;-81
2022/08/19 05:42:11;;;;;;;13.70;7.80;;;22.60;1.00;;;;;;5039305;28;20433;-73
2022/08/19 05:44:45;;;;;;;9.93;7.60;;;22.80;1.00;;;;;;5036182;28;20502;-73
2022/08/19 05:47:16;;;;;;;11.23;7.63;;;22.90;1.00;;;;;;5034221;28;20521;-73
2022/08/19 05:49:43;;;;;;;10.47;7.40;;;23.00;1.00;;;;;;5016944;28;20417;-74
2022/08/19 05:52:13;;;;;;;17.10;8.50;;;23.20;1.00;;;;;;5020051;28;20433;-73
2022/08/19 05:54:41;;;;;;;11.30;8.07;;;23.30;1.00;;;;;;5025266;28;20432;-73
2022/08/19 05:57:56;;;;;;;12.73;7.97;;;23.40;1.00;;;;;;5024252;28;20964;-81
2022/08/19 06:00:23;;;;;;;9.73;7.57;;;23.50;1.00;;;;;;5022936;28;20778;-81
2022/08/19 06:02:48;;;;;;;7.83;6.83;;;23.50;1.00;;;;;;5019130;28;20779;-81
2022/08/19 06:05:14;;;;;;;18.30;7.67;;;23.50;1.00;;;;;;5028394;28;20436;-81
2022/08/19 06:07:40;;;;;;;18.83;7.20;;;23.60;1.00;;;;;;5040368;28;20225;-85
2022/08/19 06:10:10;;;;;;;10.20;7.10;;;23.60;1.00;;;;;;5030496;28;20472;-86
2022/08/19 06:12:36;;;;;;;7.13;6.30;;;23.60;1.00;;;;;;5023274;28;20222;-86
2022/08/19 06:15:06;;;;;;;9.23;6.23;;;23.60;1.00;;;;;;5029184;28;20415;-86
2022/08/19 06:17:34;;;;;;;9.23;6.30;;;23.60;1.00;;;;;;5015851;28;20429;-87
2022/08/19 06:20:03;;;;;;;11.63;6.27;;;23.60;1.00;;;;;;5023032;28;20441;-86
2022/08/19 06:22:38;;;;;;;8.93;5.93;;;23.70;1.00;;;;;;5029082;28;20530;-86
2022/08/19 06:25:04;;;;;;;9.47;5.40;;;23.70;1.00;;;;;;5019718;28;20436;-86
2022/08/19 06:27:31;;;;;;;9.77;7.00;;;23.70;1.00;;;;;;5024095;28;20940;-86
2022/08/19 06:29:57;;;;;;;12.60;6.20;;;23.70;1.00;;;;;;5016277;28;20469;-86
2022/08/19 06:32:23;;;;;;;8.63;6.03;;;23.70;1.00;;;;;;5014614;28;20824;-86
2022/08/19 06:34:48;;;;;;;10.13;6.23;;;23.80;1.00;;;;;;5014825;28;20183;-86
2022/08/19 06:37:15;;;;;;;11.30;6.57;;;23.80;1.00;;;;;;5015317;28;20413;-86
2022/08/19 06:39:42;;;;;;;7.30;5.93;;;23.90;1.00;;;;;;5017203;28;20711;-85
2022/08/19 06:42:11;;;;;;;12.60;5.80;;;23.80;1.00;;;;;;5024812;28;20524;-86
2022/08/19 06:45:20;;;;;;;8.93;5.57;;;23.90;1.00;;;;;;5034108;28;20403;-86
2022/08/19 06:48:15;;;;;;;6.00;5.40;;;24.00;1.00;;;;;;5033887;28;20460;-86
2022/08/19 06:54:02;;;;;;;9.90;5.40;;;24.20;1.00;;;;;;5019452;28;20992;-86
2022/08/19 06:56:34;;;;;;;12.37;5.53;;;24.30;1.00;;;;;;5026293;28;20445;-81
2022/08/19 06:59:16;;;;;;;6.63;5.40;;;24.40;1.00;;;;;;5016260;28;20180;-80
2022/08/19 07:01:53;;;;;;;8.30;4.90;;;24.30;1.00;;;;;;5027454;28;20948;-80
2022/08/19 07:04:33;;;;;;;5.67;4.90;;;24.40;1.00;;;;;;5023955;28;20430;-80
2022/08/19 07:07:12;;;;;;;6.93;5.57;;;24.50;1.00;;;;;;5024732;28;20429;-80
2022/08/19 07:09:45;;;;;;;16.47;5.23;;;24.60;1.00;;;;;;5027144;28;20440;-80
2022/08/19 07:12:15;;;;;;;6.23;4.70;;;24.60;1.00;;;;;;5030758;28;20759;-80
2022/08/19 07:15:26;;;;;;;12.67;5.00;;;24.60;1.00;;;;;;5034801;28;20397;-80
2022/08/19 07:17:52;;;;;;;6.27;4.43;;;24.70;1.00;;;;;;5016683;28;20415;-80
2022/08/19 07:20:18;;;;;;;8.27;5.97;;;24.80;1.00;;;;;;5033871;28;20939;-80
2022/08/19 07:22:45;;;;;;;9.73;5.57;;;24.80;1.00;;;;;;5024861;28;20242;-80
2022/08/19 07:25:12;;;;;;;12.73;5.40;;;24.90;1.00;;;;;;5014056;28;20172;-80
2022/08/19 07:27:38;;;;;;;8.57;5.67;;;24.90;1.00;;;;;;5012743;28;20501;-75
2022/08/19 07:30:05;;;;;;;9.80;6.00;;;25.00;1.00;;;;;;5014098;28;20446;-75
2022/08/19 07:32:30;;;;;;;7.27;5.40;;;25.00;1.00;;;;;;5030122;28;20444;-75
2022/08/19 07:34:56;;;;;;;9.40;5.20;;;25.10;1.00;;;;;;5033386;28;20935;-75
2022/08/19 07:37:22;;;;;;;8.73;5.73;;;25.20;1.00;;;;;;5032164;28;20241;-75
2022/08/19 07:39:47;;;;;;;7.70;5.70;;;25.30;1.00;;;;;;5032123;28;20701;-75
2022/08/19 07:42:14;;;;;;;11.00;6.33;;;25.40;1.00;;;;;;5033624;28;20214;-80
2022/08/19 07:44:40;;;;;;;10.73;6.40;;;25.50;1.00;;;;;;5033167;28;20181;-80
2022/08/19 07:47:06;;;;;;;9.27;5.97;;;25.60;1.00;;;;;;5023974;28;20454;-80
2022/08/19 07:49:32;;;;;;;7.97;5.47;;;25.70;1.00;;;;;;5029490;28;20420;-80
2022/08/19 07:52:06;;;;;;;10.70;5.40;;;25.80;1.00;;;;;;5033383;28;20432;-80
2022/08/19 07:54:35;;;;;;;7.37;5.40;;;25.90;1.00;;;;;;5032946;28;20229;-80
2022/08/19 07:57:02;;;;;;;12.53;6.10;;;26.10;1.00;;;;;;5031919;28;20460;-80
2022/08/19 07:59:28;;;;;;;8.70;6.10;;;26.20;1.00;;;;;;5032185;28;20518;-80
2022/08/19 08:01:55;;;;;;;7.80;6.50;;;26.20;1.00;;;;;;5033125;28;20773;-79
2022/08/19 08:09:51;;;;;;;11.90;5.23;;;26.60;1.00;;;;;;5013565;28;20455;-79
2022/08/19 08:12:33;;;;;;;10.63;5.60;;;26.70;1.00;;;;;;5015665;28;20901;-76
2022/08/19 08:15:04;;;;;;;7.70;4.60;;;26.80;1.00;;;;;;5013187;28;20420;-75
2022/08/19 08:17:31;;;;;;;12.20;4.70;;;26.90;1.00;;;;;;5013046;28;20423;-74
2022/08/19 08:19:58;;;;;;;5.60;4.30;;;26.90;1.00;;;;;;5019478;28;20424;-74
2022/08/19 08:25:16;;;;;;;6.30;4.77;;;27.30;1.00;;;;;;5013320;28;20416;-74
2022/08/19 08:27:43;;;;;;;5.00;4.13;;;27.50;1.00;;;;;;5012401;28;20448;-75
2022/08/19 08:30:14;;;;;;;4.63;4.23;;;27.70;1.00;;;;;;5016871;28;20462;-74
2022/08/19 08:32:40;;;;;;;5.70;4.93;;;27.70;1.00;;;;;;5021856;28;20959;-74
2022/08/19 08:35:08;;;;;;;8.70;5.13;;;27.90;1.00;;;;;;5012937;28;20494;-74
2022/08/19 08:37:34;;;;;;;7.90;4.83;;;27.90;1.00;;;;;;5015175;28;20437;-75
2022/08/19 08:40:23;;;;;;;4.80;4.00;;;28.00;1.00;;;;;;5014022;28;20441;-75
2022/08/19 08:43:02;;;;;;;9.97;4.67;;;28.20;1.00;;;;;;5030406;28;20192;-76
2022/08/19 08:45:30;;;;;;;10.00;4.50;;;28.30;1.00;;;;;;5029948;28;20517;-76
2022/08/19 08:48:01;;;;;;;5.57;4.20;;;28.30;1.00;;;;;;5030216;28;20934;-76
2022/08/19 08:50:39;;;;;;;4.60;4.00;;;28.50;1.00;;;;;;5030378;28;20425;-77
2022/08/19 08:53:08;;;;;;;4.93;4.43;;;28.70;1.00;;;;;;5013612;28;20513;-77
2022/08/19 08:55:34;;;;;;;6.67;4.80;;;28.80;1.00;;;;;;5022339;28;20823;-77
2022/08/19 08:58:15;;;;;;;8.90;5.10;;;28.70;1.00;;;;;;5013988;28;20442;-75
2022/08/19 09:00:48;;;;;;;5.50;3.63;;;28.50;1.00;;;;;;5023956;28;20446;-75
2022/08/19 09:03:19;;;;;;;4.70;4.30;;;28.60;1.00;;;;;;5027107;28;20430;-75
2022/08/19 09:05:57;;;;;;;9.13;4.97;;;28.60;1.00;;;;;;5022786;28;20592;-75
2022/08/19 09:08:28;;;;;;;8.77;4.50;;;28.50;1.00;;;;;;5030040;28;20438;-75
2022/08/19 09:10:56;;;;;;;9.50;4.93;;;28.20;1.00;;;;;;5029931;28;20443;-75
2022/08/19 09:13:39;;;;;;;5.23;4.73;;;28.10;1.00;;;;;;5030214;28;20468;-76
2022/08/19 09:16:16;;;;;;;5.27;4.43;;;28.00;1.00;;;;;;5028157;28;20428;-76
2022/08/19 09:18:43;;;;;;;7.60;4.60;;;28.10;1.00;;;;;;5027663;28;20540;-77
2022/08/19 09:21:09;;;;;;;6.40;4.60;;;28.20;1.00;;;;;;5031687;28;20449;-77
2022/08/19 09:23:36;;;;;;;8.00;4.40;;;28.40;1.00;;;;;;5032074;28;20418;-76
2022/08/19 09:26:13;;;;;;;8.83;4.30;;;28.40;1.00;;;;;;5022301;28;20460;-76
2022/08/19 09:28:41;;;;;;;10.20;4.87;;;28.60;1.00;;;;;;5017256;28;20444;-75
2022/08/19 09:31:06;;;;;;;8.97;4.40;;;28.70;1.00;;;;;;5028740;28;20987;-75
2022/08/19 09:33:32;;;;;;;4.43;3.73;;;28.70;1.00;;;;;;5019913;28;20524;-75
2022/08/19 09:36:06;;;;;;;6.00;4.13;;;29.00;1.00;;;;;;5014012;28;20645;-75
2022/08/19 09:38:33;;;;;;;6.40;4.17;;;29.20;1.00;;;;;;5004991;28;20238;-75
2022/08/19 09:41:13;;;;;;;9.33;3.40;;;29.60;1.00;;;;;;5022486;28;20430;-75
2022/08/19 09:43:40;;;;;;;5.40;4.30;;;29.60;1.00;;;;;;5024251;28;20499;-76
2022/08/19 09:46:27;;;;;;;3.50;3.20;;;29.70;1.00;;;;;;5025239;28;20557;-77
2022/08/19 09:48:58;;;;;;;4.03;3.67;;;29.80;1.00;;;;;;5024300;28;20410;-77
2022/08/19 09:51:28;;;;;;;6.60;4.07;;;29.90;1.00;;;;;;5025661;28;20493;-77
2022/08/19 09:54:00;;;;;;;4.07;3.77;;;30.00;1.00;;;;;;5022786;28;20414;-77
2022/08/19 09:56:28;;;;;;;6.30;4.17;;;29.70;1.00;;;;;;5028711;28;20424;-77
2022/08/19 09:58:54;;;;;;;10.13;4.70;;;29.50;1.00;;;;;;5038641;28;20431;-77
2022/08/19 10:01:24;;;;;;;4.93;4.50;;;29.20;1.00;;;;;;5028402;28;20415;-76
2022/08/19 10:03:53;;;;;;;4.63;4.23;;;29.30;1.00;;;;;;5022674;28;20831;-77
2022/08/19 10:06:24;;;;;;;9.93;4.30;;;29.50;1.00;;;;;;5025184;28;20797;-76
2022/08/19 10:08:52;;;;;;;5.20;4.77;;;29.60;1.00;;;;;;5022880;28;20423;-77
2022/08/19 10:11:19;;;;;;;5.20;4.60;;;29.50;1.00;;;;;;5028843;28;20918;-77
2022/08/19 10:13:45;;;;;;;7.13;4.67;;;29.60;1.00;;;;;;5022327;28;20837;-76
2022/08/19 10:16:15;;;;;;;5.47;4.80;;;29.60;1.00;;;;;;5035897;28;20755;-77
2022/08/19 10:18:57;;;;;;;9.27;4.30;;;29.70;1.00;;;;;;5026769;28;20904;-77
2022/08/19 10:21:29;;;;;;;12.00;5.23;;;29.70;1.00;;;;;;5029491;28;20471;-77
2022/08/19 10:24:09;;;;;;;8.20;4.90;;;29.50;1.00;;;;;;5024619;28;20457;-77
2022/08/19 10:26:47;;;;;;;8.70;4.80;;;29.50;1.00;;;;;;5029438;28;20457;-86
2022/08/19 10:29:44;;;;;;;7.50;4.77;;;29.50;1.00;;;;;;5029828;28;20487;-86
2022/08/19 10:32:45;;;;;;;5.70;5.20;;;29.60;1.00;;;;;;5028680;28;20518;-86
2022/08/19 10:35:17;;;;;;;4.83;4.43;;;29.80;1.00;;;;;;5032094;28;20485;-87
2022/08/19 10:37:42;;;;;;;7.03;4.70;;;30.00;1.00;;;;;;5029843;28;20433;-86
2022/08/19 10:40:15;;;;;;;13.93;4.73;;;30.20;1.00;;;;;;5025613;28;20430;-86
2022/08/19 10:42:57;;;;;;;5.23;4.73;;;30.30;1.00;;;;;;5031090;28;20192;-86
2022/08/19 10:45:27;;;;;;;6.27;4.90;;;30.50;1.00;;;;;;5023515;28;20420;-81
2022/08/19 10:47:57;;;;;;;5.13;4.63;;;30.70;1.00;;;;;;5034788;28;20455;-81
2022/08/19 10:53:08;;;;;;;12.83;5.40;;;31.10;1.00;;;;;;5024430;28;20439;-68
2022/08/19 10:58:25;;;;;;;6.10;5.10;;;31.10;1.00;;;;;;5015024;28;20466;-69
2022/08/19 11:00:56;;;;;;;6.30;4.90;;;31.10;1.00;;;;;;5034069;28;20424;-75
2022/08/19 11:03:23;;;;;;;6.83;6.23;;;31.00;1.00;;;;;;5034758;28;20453;-74
2022/08/19 11:06:07;;;;;;;8.43;5.97;;;30.90;1.00;;;;;;5018375;28;20422;-74
2022/08/19 11:08:34;;;;;;;7.77;6.80;;;31.10;1.00;;;;;;5021786;28;20420;-74
2022/08/19 11:11:02;;;;;;;6.87;6.27;;;31.20;1.00;;;;;;5016913;28;20457;-75
2022/08/19 11:13:38;;;;;;;8.10;6.60;;;31.10;1.00;;;;;;5015081;28;20401;-78
2022/08/19 11:16:07;;;;;;;13.17;6.93;;;31.10;1.00;;;;;;5016371;28;20426;-73
2022/08/19 11:18:43;;;;;;;7.33;6.63;;;31.20;1.00;;;;;;5036982;28;20431;-74
2022/08/19 11:21:10;;;;;;;7.97;6.73;;;31.50;1.00;;;;;;5028139;28;20408;-73
2022/08/19 11:23:36;;;;;;;10.30;6.20;;;31.50;1.00;;;;;;5019300;28;20974;-73
2022/08/19 11:26:02;;;;;;;7.03;6.10;;;31.60;1.00;;;;;;5023268;28;20451;-74
2022/08/19 11:28:28;;;;;;;7.80;6.90;;;31.80;1.00;;;;;;5021553;28;20180;-73
2022/08/19 11:30:54;;;;;;;9.33;6.50;;;31.70;1.00;;;;;;5015313;28;20423;-68
2022/08/19 11:33:19;;;;;;;9.70;7.17;;;31.50;1.00;;;;;;5016230;28;20424;-68
2022/08/19 11:35:45;;;;;;;7.87;7.10;;;31.60;1.00;;;;;;5025055;28;20173;-68
2022/08/19 11:38:11;;;;;;;7.77;6.70;;;31.70;1.00;;;;;;5014357;28;20543;-74
2022/08/19 11:40:40;;;;;;;8.40;7.27;;;31.70;1.00;;;;;;5023294;28;20660;-74
2022/08/19 11:43:05;;;;;;;13.73;7.50;;;31.80;1.00;;;;;;5031722;28;20176;-74
2022/08/19 11:45:31;;;;;;;8.03;7.23;;;31.90;1.00;;;;;;5020633;28;20415;-68
2022/08/19 11:47:57;;;;;;;6.93;6.33;;;31.90;1.00;;;;;;5018254;28;20667;-68
2022/08/19 11:50:24;;;;;;;12.30;6.83;;;31.90;1.00;;;;;;5014059;28;20177;-68
2022/08/19 11:52:51;;;;;;;10.37;7.00;;;32.00;1.00;;;;;;5021384;28;20200;-68
2022/08/19 11:55:16;;;;;;;9.17;7.13;;;32.10;1.00;;;;;;5014118;28;20892;-68
2022/08/19 11:57:43;;;;;;;9.10;8.27;;;32.10;1.00;;;;;;5016674;28;20427;-68
2022/08/19 12:00:12;;;;;;;8.70;7.80;;;32.10;1.00;;;;;;5025851;28;20489;-74
2022/08/19 12:02:38;;;;;;;7.63;6.90;;;32.20;1.00;;;;;;5026261;28;20435;-78
2022/08/19 12:05:27;;;;;;;9.80;7.20;;;32.00;1.00;;;;;;5020511;28;20416;-78
2022/08/19 12:08:04;;;;;;;26.87;7.43;;;32.00;1.00;;;;;;5014022;28;20220;-78
2022/08/19 12:10:29;;;;;;;15.40;7.40;;;31.80;1.00;;;;;;5026671;28;20814;-78
2022/08/19 12:13:03;;;;;;;8.13;7.43;;;31.70;1.00;;;;;;5025692;28;20424;-79
2022/08/19 12:15:30;;;;;;;7.40;6.80;;;31.60;1.00;;;;;;5029225;28;20184;-78
2022/08/19 12:17:57;;;;;;;8.50;7.60;;;31.50;1.00;;;;;;5033976;28;20414;-77
2022/08/19 12:20:24;;;;;;;8.57;7.77;;;31.40;1.00;;;;;;5031393;28;20403;-77
2022/08/19 12:23:04;;;;;;;11.23;7.70;;;31.40;1.00;;;;;;5019704;28;20415;-77
2022/08/19 12:25:31;;;;;;;8.43;7.47;;;31.40;1.00;;;;;;5014154;28;20431;-77
2022/08/19 12:27:57;;;;;;;9.00;8.10;;;31.60;1.00;;;;;;5015890;28;20467;-78
2022/08/19 12:30:23;;;;;;;8.50;7.70;;;31.70;1.00;;;;;;5018117;28;20538;-73
2022/08/19 12:32:50;;;;;;;11.60;7.33;;;31.70;1.00;;;;;;5023193;28;20938;-73
2022/08/19 12:35:21;;;;;;;8.80;7.03;;;32.00;1.00;;;;;;5016284;28;20408;-73
2022/08/19 12:37:49;;;;;;;10.80;6.87;;;31.70;1.00;;;;;;5020441;28;20423;-73
2022/08/19 12:40:17;;;;;;;9.57;6.93;;;31.70;1.00;;;;;;5016231;28;20443;-73
2022/08/19 12:42:43;;;;;;;8.70;7.10;;;31.70;1.00;;;;;;5024125;28;20451;-73
2022/08/19 12:45:11;;;;;;;8.17;7.37;;;31.90;1.00;;;;;;5016456;28;20416;-76
2022/08/19 12:47:46;;;;;;;7.03;6.40;;;32.00;1.00;;;;;;5024657;28;20192;-77
2022/08/19 12:50:12;;;;;;;9.23;6.30;;;32.10;1.00;;;;;;5033512;28;20391;-77
2022/08/19 12:52:38;;;;;;;6.77;6.17;;;32.20;1.00;;;;;;5021913;28;20503;-77
2022/08/19 12:55:06;;;;;;;6.87;6.27;;;32.30;1.00;;;;;;5026745;28;20203;-78
2022/08/19 12:57:35;;;;;;;7.30;6.63;;;32.40;1.00;;;;;;5013693;28;20495;-77
2022/08/19 13:00:13;;;;;;;9.60;6.77;;;32.40;1.00;;;;;;5018399;28;20515;-76
2022/08/19 13:02:49;;;;;;;7.63;6.30;;;32.30;1.00;;;;;;5013959;28;20534;-77
2022/08/19 13:05:27;;;;;;;8.53;7.20;;;32.10;1.00;;;;;;5016453;28;20514;-77
2022/08/19 13:07:59;;;;;;;8.10;6.43;;;32.00;1.00;;;;;;5020573;28;20486;-77
2022/08/19 13:10:28;;;;;;;7.20;6.50;;;32.00;1.00;;;;;;5019640;28;20815;-77
2022/08/19 13:12:59;;;;;;;8.80;6.20;;;32.20;1.00;;;;;;5033233;28;20759;-77
2022/08/19 13:15:25;;;;;;;7.33;6.50;;;32.30;1.00;;;;;;5035288;28;20458;-73
2022/08/19 13:17:53;;;;;;;7.13;6.43;;;32.20;1.00;;;;;;5032976;28;20419;-74
2022/08/19 13:20:20;;;;;;;6.10;5.50;;;32.10;1.00;;;;;;5031580;28;20188;-75
2022/08/19 13:22:46;;;;;;;5.80;5.30;;;32.00;1.00;;;;;;5025770;28;20473;-73
2022/08/19 13:25:13;;;;;;;5.70;5.20;;;31.80;1.00;;;;;;5026933;28;20429;-74
2022/08/19 13:27:39;;;;;;;5.20;4.80;;;31.70;1.00;;;;;;5025924;28;20501;-73
2022/08/19 13:33:11;;;;;;;6.10;5.20;;;31.60;1.00;;;;;;5033644;28;20429;-72
2022/08/19 13:35:50;;;;;;;5.20;4.80;;;31.40;1.00;;;;;;5026382;28;20427;-72
2022/08/19 13:38:20;;;;;;;5.40;4.90;;;31.40;1.00;;;;;;5020429;28;20523;-72
2022/08/19 13:40:47;;;;;;;5.33;4.87;;;31.40;1.00;;;;;;5016542;28;21027;-72
2022/08/19 13:43:13;;;;;;;5.20;4.70;;;31.50;1.00;;;;;;5020095;28;20792;-72